UAL539 KIAH-KLAX
Flight info
| Callsign | UAL539 |
|---|---|
| Flight time | 3h 4m |
| Altitude | 30000 |
| Route | PITZZ5 CRGER EWM J4 WLVRN ESTWD HLYWD1 |
| Aircraft | B77W/H-SDE1E2E3FGHIJ2J3J4J5M1RWXY/LB1D1 |
Departure
| Time | 2026-04-23 20:01 |
|---|---|
| Airport | George Bush Intercontinental Airport (KIAH) |
Arrival
| Time | 2026-04-23 23:06 |
|---|---|
| Airport | Los Angeles International Airport (KLAX) |
| Time | Latitude | Longitude | Altitude | Speed | Heading |
|---|---|---|---|---|---|
| 2026-04-23 19:18 | 29.98845 | -95.33429 | 107 ft | 0 kts | 180° |
| 2026-04-23 19:44 | 29.98846 | -95.33429 | 107 ft | 1 kts | 180° |
| 2026-04-23 19:44 | 29.98861 | -95.33429 | 107 ft | 2 kts | 180° |
| 2026-04-23 19:45 | 29.98877 | -95.33429 | 107 ft | 2 kts | 180° |
| 2026-04-23 19:45 | 29.98892 | -95.33429 | 107 ft | 2 kts | 180° |
| 2026-04-23 19:45 | 29.98907 | -95.33428 | 107 ft | 2 kts | 200° |
| 2026-04-23 19:45 | 29.98919 | -95.33419 | 107 ft | 2 kts | 231° |
| 2026-04-23 19:46 | 29.98927 | -95.33405 | 107 ft | 2 kts | 257° |
| 2026-04-23 19:46 | 29.98928 | -95.33396 | 107 ft | 0 kts | 270° |
| 2026-04-23 19:46 | 29.98928 | -95.33390 | 107 ft | 0 kts | 271° |
| 2026-04-23 19:50 | 29.98928 | -95.33397 | 107 ft | 3 kts | 269° |
| 2026-04-23 19:50 | 29.98927 | -95.33432 | 107 ft | 5 kts | 269° |
| 2026-04-23 19:51 | 29.98927 | -95.33482 | 107 ft | 6 kts | 269° |
| 2026-04-23 19:51 | 29.98927 | -95.33545 | 107 ft | 10 kts | 270° |
| 2026-04-23 19:51 | 29.98926 | -95.33628 | 107 ft | 9 kts | 270° |
| 2026-04-23 19:51 | 29.98960 | -95.33679 | 107 ft | 8 kts | 345° |
| 2026-04-23 19:52 | 29.99019 | -95.33684 | 107 ft | 8 kts | 359° |
| 2026-04-23 19:52 | 29.99072 | -95.33687 | 107 ft | 5 kts | 338° |
| 2026-04-23 19:52 | 29.99087 | -95.33728 | 107 ft | 6 kts | 279° |
| 2026-04-23 19:52 | 29.99088 | -95.33783 | 107 ft | 9 kts | 270° |
| 2026-04-23 19:53 | 29.99087 | -95.33866 | 107 ft | 10 kts | 269° |
| 2026-04-23 19:53 | 29.99087 | -95.33947 | 107 ft | 9 kts | 270° |
| 2026-04-23 19:53 | 29.99087 | -95.34023 | 107 ft | 9 kts | 271° |
| 2026-04-23 19:53 | 29.99088 | -95.34094 | 107 ft | 8 kts | 270° |
| 2026-04-23 19:54 | 29.99089 | -95.34161 | 107 ft | 8 kts | 270° |
| 2026-04-23 19:54 | 29.99089 | -95.34224 | 107 ft | 7 kts | 270° |
| 2026-04-23 19:54 | 29.99089 | -95.34284 | 107 ft | 7 kts | 270° |
| 2026-04-23 19:54 | 29.99089 | -95.34352 | 107 ft | 9 kts | 270° |
| 2026-04-23 19:55 | 29.99089 | -95.34440 | 107 ft | 12 kts | 270° |
| 2026-04-23 19:55 | 29.99088 | -95.34547 | 107 ft | 14 kts | 270° |
| 2026-04-23 19:55 | 29.99088 | -95.34669 | 107 ft | 15 kts | 270° |
| 2026-04-23 19:55 | 29.99087 | -95.34785 | 107 ft | 13 kts | 270° |
| 2026-04-23 19:56 | 29.99088 | -95.34890 | 106 ft | 13 kts | 270° |
| 2026-04-23 19:56 | 29.99088 | -95.34998 | 104 ft | 13 kts | 270° |
| 2026-04-23 19:56 | 29.99088 | -95.35099 | 104 ft | 12 kts | 270° |
| 2026-04-23 19:56 | 29.99087 | -95.35194 | 104 ft | 11 kts | 270° |
| 2026-04-23 19:57 | 29.99088 | -95.35274 | 105 ft | 9 kts | 270° |
| 2026-04-23 19:57 | 29.99087 | -95.35367 | 105 ft | 12 kts | 269° |
| 2026-04-23 19:57 | 29.99081 | -95.35458 | 105 ft | 10 kts | 244° |
| 2026-04-23 19:57 | 29.99021 | -95.35484 | 104 ft | 9 kts | 182° |
| 2026-04-23 19:58 | 29.98955 | -95.35487 | 104 ft | 8 kts | 192° |
| 2026-04-23 19:58 | 29.98906 | -95.35522 | 104 ft | 7 kts | 231° |
| 2026-04-23 19:58 | 29.98880 | -95.35570 | 104 ft | 6 kts | 239° |
| 2026-04-23 19:58 | 29.98859 | -95.35611 | 104 ft | 5 kts | 240° |
| 2026-04-23 19:59 | 29.98842 | -95.35647 | 104 ft | 4 kts | 241° |
| 2026-04-23 19:59 | 29.98828 | -95.35677 | 104 ft | 4 kts | 241° |
| 2026-04-23 19:59 | 29.98810 | -95.35715 | 104 ft | 6 kts | 242° |
| 2026-04-23 19:59 | 29.98785 | -95.35764 | 104 ft | 6 kts | 221° |
| 2026-04-23 20:00 | 29.98739 | -95.35755 | 104 ft | 7 kts | 156° |
| 2026-04-23 20:00 | 29.98610 | -95.35677 | 104 ft | 47 kts | 153° |
| 2026-04-23 20:00 | 29.98101 | -95.35365 | 104 ft | 117 kts | 152° |
| 2026-04-23 20:00 | 29.97193 | -95.34820 | 174 ft | 169 kts | 151° |
| 2026-04-23 20:01 | 29.96108 | -95.34121 | 666 ft | 188 kts | 148° |
| 2026-04-23 20:01 | 29.94943 | -95.33478 | 1640 ft | 185 kts | 165° |
| 2026-04-23 20:01 | 29.93644 | -95.33348 | 2125 ft | 200 kts | 185° |
| 2026-04-23 20:01 | 29.92237 | -95.33888 | 2479 ft | 226 kts | 210° |
| 2026-04-23 20:02 | 29.91088 | -95.35256 | 2929 ft | 251 kts | 239° |
| 2026-04-23 20:02 | 29.90388 | -95.37150 | 3597 ft | 265 kts | 247° |
| 2026-04-23 20:02 | 29.89752 | -95.39150 | 4496 ft | 268 kts | 248° |
| 2026-04-23 20:02 | 29.89121 | -95.41155 | 5400 ft | 269 kts | 249° |
| 2026-04-23 20:03 | 29.88453 | -95.43130 | 6261 ft | 271 kts | 243° |
| 2026-04-23 20:03 | 29.87542 | -95.45046 | 7125 ft | 273 kts | 240° |
| 2026-04-23 20:03 | 29.86588 | -95.46921 | 7929 ft | 276 kts | 240° |
| 2026-04-23 20:03 | 29.85620 | -95.48829 | 8654 ft | 282 kts | 241° |
| 2026-04-23 20:04 | 29.84644 | -95.50794 | 9448 ft | 285 kts | 243° |
| 2026-04-23 20:04 | 29.83683 | -95.52805 | 10206 ft | 288 kts | 246° |
| 2026-04-23 20:04 | 29.82977 | -95.55012 | 10665 ft | 302 kts | 259° |
| 2026-04-23 20:04 | 29.82757 | -95.57445 | 11022 ft | 319 kts | 274° |
| 2026-04-23 20:05 | 29.83128 | -95.60036 | 11381 ft | 337 kts | 289° |
| 2026-04-23 20:05 | 29.84170 | -95.62496 | 11761 ft | 354 kts | 306° |
| 2026-04-23 20:05 | 29.85784 | -95.64753 | 12244 ft | 369 kts | 309° |
| 2026-04-23 20:05 | 29.87326 | -95.67184 | 13093 ft | 373 kts | 304° |
| 2026-04-23 20:06 | 29.88743 | -95.69671 | 14061 ft | 373 kts | 302° |
| 2026-04-23 20:06 | 29.90114 | -95.72213 | 14941 ft | 376 kts | 301° |
| 2026-04-23 20:06 | 29.91455 | -95.74796 | 15734 ft | 381 kts | 300° |
| 2026-04-23 20:06 | 29.92791 | -95.77428 | 16532 ft | 385 kts | 300° |
| 2026-04-23 20:07 | 29.94135 | -95.80104 | 17361 ft | 387 kts | 300° |
| 2026-04-23 20:07 | 29.95476 | -95.82796 | 18187 ft | 389 kts | 299° |
| 2026-04-23 20:07 | 29.96829 | -95.85523 | 18929 ft | 393 kts | 299° |
| 2026-04-23 20:07 | 29.98182 | -95.88259 | 19727 ft | 396 kts | 299° |
| 2026-04-23 20:08 | 29.99546 | -95.91023 | 20448 ft | 400 kts | 299° |
| 2026-04-23 20:08 | 30.00938 | -95.93851 | 21204 ft | 404 kts | 299° |
| 2026-04-23 20:08 | 30.02315 | -95.96654 | 21880 ft | 408 kts | 298° |
| 2026-04-23 20:08 | 30.03716 | -95.99507 | 22597 ft | 411 kts | 299° |
| 2026-04-23 20:09 | 30.05131 | -96.02393 | 23249 ft | 415 kts | 299° |
| 2026-04-23 20:09 | 30.06449 | -96.05378 | 23950 ft | 416 kts | 292° |
| 2026-04-23 20:09 | 30.07349 | -96.08518 | 24621 ft | 419 kts | 284° |
| 2026-04-23 20:09 | 30.07923 | -96.11846 | 25280 ft | 422 kts | 282° |
| 2026-04-23 20:10 | 30.08446 | -96.15215 | 25949 ft | 423 kts | 282° |
| 2026-04-23 20:10 | 30.08955 | -96.18510 | 26571 ft | 426 kts | 282° |
| 2026-04-23 20:10 | 30.09479 | -96.21903 | 27132 ft | 429 kts | 282° |
| 2026-04-23 20:10 | 30.09999 | -96.25281 | 27742 ft | 431 kts | 282° |
| 2026-04-23 20:11 | 30.10531 | -96.28739 | 28371 ft | 433 kts | 282° |
| 2026-04-23 20:11 | 30.11059 | -96.32179 | 28971 ft | 435 kts | 282° |
| 2026-04-23 20:11 | 30.11583 | -96.35599 | 29589 ft | 436 kts | 282° |
| 2026-04-23 20:11 | 30.12111 | -96.39044 | 29889 ft | 437 kts | 282° |
| 2026-04-23 20:12 | 30.12642 | -96.42523 | 29906 ft | 434 kts | 282° |
| 2026-04-23 20:12 | 30.13684 | -96.49365 | 29907 ft | 429 kts | 282° |
| 2026-04-23 20:13 | 30.14710 | -96.56123 | 29904 ft | 430 kts | 282° |
| 2026-04-23 20:13 | 30.15736 | -96.62903 | 29902 ft | 429 kts | 283° |
| 2026-04-23 20:14 | 30.16745 | -96.69593 | 29911 ft | 430 kts | 282° |
| 2026-04-23 20:14 | 30.17769 | -96.76409 | 29910 ft | 429 kts | 282° |
| 2026-04-23 20:15 | 30.18782 | -96.83176 | 29949 ft | 430 kts | 282° |
| 2026-04-23 20:15 | 30.19796 | -96.89972 | 29980 ft | 431 kts | 282° |
| 2026-04-23 20:16 | 30.20807 | -96.96778 | 29988 ft | 429 kts | 282° |
| 2026-04-23 20:16 | 30.21812 | -97.03568 | 29986 ft | 429 kts | 282° |
| 2026-04-23 20:17 | 30.22818 | -97.10359 | 29983 ft | 427 kts | 282° |
| 2026-04-23 20:17 | 30.23824 | -97.17100 | 29936 ft | 426 kts | 282° |
| 2026-04-23 20:18 | 30.24833 | -97.23878 | 29877 ft | 426 kts | 282° |
| 2026-04-23 20:18 | 30.25837 | -97.30654 | 29849 ft | 427 kts | 282° |
| 2026-04-23 20:19 | 30.26830 | -97.37380 | 29876 ft | 426 kts | 282° |
| 2026-04-23 20:19 | 30.27824 | -97.44141 | 29878 ft | 424 kts | 282° |
| 2026-04-23 20:20 | 30.28810 | -97.50868 | 29885 ft | 426 kts | 282° |
| 2026-04-23 20:20 | 30.29798 | -97.57638 | 29883 ft | 425 kts | 282° |
| 2026-04-23 20:21 | 30.30776 | -97.64362 | 29870 ft | 425 kts | 282° |
| 2026-04-23 20:21 | 30.31751 | -97.71098 | 29898 ft | 424 kts | 281° |
| 2026-04-23 20:22 | 30.32967 | -97.77765 | 29895 ft | 424 kts | 285° |
| 2026-04-23 20:22 | 30.34405 | -97.84326 | 29907 ft | 421 kts | 285° |
| 2026-04-23 20:23 | 30.35825 | -97.90928 | 29937 ft | 422 kts | 285° |
| 2026-04-23 20:23 | 30.37221 | -97.97493 | 29937 ft | 421 kts | 285° |
| 2026-04-23 20:24 | 30.38608 | -98.04066 | 29920 ft | 420 kts | 285° |
| 2026-04-23 20:24 | 30.39997 | -98.10676 | 29928 ft | 421 kts | 285° |
| 2026-04-23 20:25 | 30.41369 | -98.17231 | 29894 ft | 420 kts | 285° |
| 2026-04-23 20:25 | 30.42736 | -98.23782 | 29907 ft | 419 kts | 285° |
| 2026-04-23 20:26 | 30.44094 | -98.30312 | 29901 ft | 418 kts | 285° |
| 2026-04-23 20:26 | 30.45479 | -98.36878 | 29903 ft | 420 kts | 285° |
| 2026-04-23 20:27 | 30.46940 | -98.43398 | 29906 ft | 417 kts | 286° |
| 2026-04-23 20:27 | 30.48387 | -98.49880 | 29886 ft | 417 kts | 285° |
| 2026-04-23 20:28 | 30.49831 | -98.56377 | 29895 ft | 418 kts | 285° |
| 2026-04-23 20:28 | 30.51276 | -98.62904 | 29868 ft | 414 kts | 285° |
| 2026-04-23 20:29 | 30.52710 | -98.69400 | 29886 ft | 418 kts | 284° |
| 2026-04-23 20:29 | 30.54147 | -98.75926 | 29885 ft | 417 kts | 285° |
| 2026-04-23 20:30 | 30.55574 | -98.82430 | 29889 ft | 415 kts | 285° |
| 2026-04-23 20:30 | 30.57699 | -98.92136 | 29886 ft | 416 kts | 284° |
| 2026-04-23 20:31 | 30.59119 | -98.98648 | 29882 ft | 415 kts | 284° |
| 2026-04-23 20:31 | 30.60534 | -99.05153 | 29879 ft | 415 kts | 285° |
| 2026-04-23 20:32 | 30.61938 | -99.11623 | 29880 ft | 415 kts | 284° |
| 2026-04-23 20:32 | 30.63337 | -99.18085 | 29870 ft | 414 kts | 284° |
| 2026-04-23 20:33 | 30.64732 | -99.24549 | 29881 ft | 413 kts | 284° |
| 2026-04-23 20:33 | 30.66134 | -99.31059 | 29880 ft | 414 kts | 284° |
| 2026-04-23 20:34 | 30.67528 | -99.37549 | 29893 ft | 415 kts | 285° |
| 2026-04-23 20:34 | 30.68923 | -99.44062 | 29863 ft | 412 kts | 284° |
| 2026-04-23 20:35 | 30.70306 | -99.50535 | 29878 ft | 415 kts | 284° |
| 2026-04-23 20:35 | 30.71690 | -99.57032 | 29878 ft | 412 kts | 284° |
| 2026-04-23 20:36 | 30.73072 | -99.63533 | 29872 ft | 415 kts | 284° |
| 2026-04-23 20:36 | 30.74457 | -99.70069 | 29904 ft | 415 kts | 284° |
| 2026-04-23 20:37 | 30.75827 | -99.76549 | 29901 ft | 412 kts | 284° |
| 2026-04-23 20:37 | 30.77194 | -99.83031 | 29908 ft | 415 kts | 283° |
| 2026-04-23 20:38 | 30.78557 | -99.89513 | 29900 ft | 414 kts | 283° |
| 2026-04-23 20:38 | 30.79925 | -99.96034 | 29897 ft | 415 kts | 283° |
| 2026-04-23 20:39 | 30.81295 | -100.02583 | 29895 ft | 415 kts | 283° |
| 2026-04-23 20:39 | 30.82654 | -100.09098 | 29900 ft | 416 kts | 283° |
| 2026-04-23 20:40 | 30.84008 | -100.15606 | 29895 ft | 413 kts | 283° |
| 2026-04-23 20:40 | 30.85364 | -100.22141 | 29891 ft | 416 kts | 283° |
| 2026-04-23 20:41 | 30.86709 | -100.28638 | 29892 ft | 414 kts | 283° |
| 2026-04-23 20:41 | 30.88057 | -100.35170 | 29882 ft | 414 kts | 283° |
| 2026-04-23 20:42 | 30.89394 | -100.41669 | 29884 ft | 415 kts | 283° |
| 2026-04-23 20:42 | 30.90733 | -100.48189 | 29875 ft | 415 kts | 283° |
| 2026-04-23 20:43 | 30.92073 | -100.54739 | 29874 ft | 414 kts | 283° |
| 2026-04-23 20:43 | 30.93401 | -100.61245 | 29872 ft | 414 kts | 283° |
| 2026-04-23 20:44 | 30.94642 | -100.67336 | 29885 ft | 412 kts | 282° |
| 2026-04-23 20:44 | 30.95969 | -100.73876 | 29891 ft | 415 kts | 282° |
| 2026-04-23 20:45 | 30.97298 | -100.80437 | 29898 ft | 414 kts | 282° |
| 2026-04-23 20:45 | 30.98625 | -100.87006 | 29900 ft | 414 kts | 282° |
| 2026-04-23 20:46 | 30.99939 | -100.93534 | 29902 ft | 415 kts | 282° |
| 2026-04-23 20:46 | 31.01254 | -101.00079 | 29900 ft | 414 kts | 282° |
| 2026-04-23 20:47 | 31.02562 | -101.06612 | 29916 ft | 414 kts | 282° |
| 2026-04-23 20:47 | 31.03861 | -101.13114 | 29914 ft | 415 kts | 282° |
| 2026-04-23 20:48 | 31.05172 | -101.19698 | 29905 ft | 414 kts | 282° |
| 2026-04-23 20:48 | 31.06470 | -101.26238 | 29905 ft | 414 kts | 282° |
| 2026-04-23 20:49 | 31.07773 | -101.32817 | 29908 ft | 414 kts | 282° |
| 2026-04-23 20:49 | 31.09069 | -101.39381 | 29898 ft | 416 kts | 282° |
| 2026-04-23 20:50 | 31.10361 | -101.45941 | 29903 ft | 414 kts | 282° |
| 2026-04-23 20:50 | 31.11646 | -101.52486 | 29900 ft | 414 kts | 282° |
| 2026-04-23 20:51 | 31.12936 | -101.59075 | 29897 ft | 414 kts | 282° |
| 2026-04-23 20:51 | 31.14208 | -101.65593 | 29899 ft | 414 kts | 281° |
| 2026-04-23 20:52 | 31.15486 | -101.72155 | 29912 ft | 414 kts | 281° |
| 2026-04-23 20:52 | 31.16748 | -101.78657 | 29901 ft | 413 kts | 281° |
| 2026-04-23 20:53 | 31.18012 | -101.85187 | 29888 ft | 411 kts | 281° |
| 2026-04-23 20:53 | 31.19277 | -101.91742 | 29881 ft | 413 kts | 281° |
| 2026-04-23 20:54 | 31.20539 | -101.98298 | 29874 ft | 414 kts | 281° |
| 2026-04-23 20:54 | 31.21788 | -102.04810 | 29881 ft | 413 kts | 281° |
| 2026-04-23 20:55 | 31.23054 | -102.11426 | 29865 ft | 414 kts | 282° |
| 2026-04-23 20:55 | 31.24296 | -102.17939 | 29886 ft | 413 kts | 281° |
| 2026-04-23 20:56 | 31.25549 | -102.24528 | 29884 ft | 416 kts | 281° |
| 2026-04-23 20:56 | 31.26796 | -102.31099 | 29880 ft | 412 kts | 281° |
| 2026-04-23 20:57 | 31.28030 | -102.37627 | 29870 ft | 413 kts | 281° |
| 2026-04-23 20:57 | 31.29261 | -102.44152 | 29861 ft | 412 kts | 281° |
| 2026-04-23 20:58 | 31.30496 | -102.50723 | 29853 ft | 411 kts | 281° |
| 2026-04-23 20:58 | 31.31717 | -102.57239 | 29853 ft | 412 kts | 281° |
| 2026-04-23 20:59 | 31.32941 | -102.63789 | 29852 ft | 413 kts | 281° |
| 2026-04-23 20:59 | 31.34164 | -102.70353 | 29877 ft | 413 kts | 281° |
| 2026-04-23 21:00 | 31.35385 | -102.76925 | 29870 ft | 412 kts | 281° |
| 2026-04-23 21:00 | 31.36599 | -102.83482 | 29873 ft | 411 kts | 281° |
| 2026-04-23 21:01 | 31.37804 | -102.90010 | 29883 ft | 412 kts | 281° |
| 2026-04-23 21:01 | 31.39011 | -102.96564 | 29892 ft | 409 kts | 281° |
| 2026-04-23 21:02 | 31.40205 | -103.03071 | 29894 ft | 410 kts | 281° |
| 2026-04-23 21:02 | 31.41398 | -103.09591 | 29897 ft | 410 kts | 281° |
| 2026-04-23 21:03 | 31.42587 | -103.16106 | 29895 ft | 407 kts | 280° |
| 2026-04-23 21:03 | 31.43765 | -103.22587 | 29902 ft | 410 kts | 281° |
| 2026-04-23 21:04 | 31.44947 | -103.29104 | 29902 ft | 408 kts | 281° |
| 2026-04-23 21:04 | 31.46126 | -103.35625 | 29877 ft | 409 kts | 281° |
| 2026-04-23 21:05 | 31.47291 | -103.42087 | 29856 ft | 406 kts | 281° |
| 2026-04-23 21:05 | 31.48458 | -103.48586 | 29833 ft | 410 kts | 281° |
| 2026-04-23 21:06 | 31.49627 | -103.55106 | 29843 ft | 406 kts | 280° |
| 2026-04-23 21:06 | 31.50777 | -103.61552 | 29864 ft | 406 kts | 281° |
| 2026-04-23 21:07 | 31.51934 | -103.68051 | 29963 ft | 407 kts | 280° |
| 2026-04-23 21:07 | 31.53091 | -103.74568 | 29929 ft | 406 kts | 281° |
| 2026-04-23 21:08 | 31.54238 | -103.81052 | 29930 ft | 406 kts | 281° |
| 2026-04-23 21:08 | 31.55379 | -103.87521 | 29945 ft | 408 kts | 280° |
| 2026-04-23 21:09 | 31.56523 | -103.94026 | 29949 ft | 405 kts | 280° |
| 2026-04-23 21:09 | 31.57663 | -104.00532 | 29967 ft | 405 kts | 281° |
| 2026-04-23 21:10 | 31.58792 | -104.06988 | 29962 ft | 404 kts | 280° |
| 2026-04-23 21:10 | 31.59911 | -104.13413 | 29939 ft | 404 kts | 280° |
| 2026-04-23 21:11 | 31.61037 | -104.19899 | 29963 ft | 406 kts | 280° |
| 2026-04-23 21:11 | 31.62156 | -104.26359 | 29924 ft | 401 kts | 279° |
| 2026-04-23 21:12 | 31.63259 | -104.32753 | 29949 ft | 403 kts | 280° |
| 2026-04-23 21:12 | 31.64373 | -104.39231 | 29965 ft | 403 kts | 280° |
| 2026-04-23 21:13 | 31.65477 | -104.45671 | 29977 ft | 403 kts | 280° |
| 2026-04-23 21:13 | 31.66577 | -104.52103 | 29973 ft | 402 kts | 279° |
| 2026-04-23 21:14 | 31.67672 | -104.58527 | 30001 ft | 403 kts | 279° |
| 2026-04-23 21:14 | 31.68763 | -104.64954 | 29998 ft | 403 kts | 279° |
| 2026-04-23 21:15 | 31.69859 | -104.71424 | 30027 ft | 402 kts | 279° |
| 2026-04-23 21:15 | 31.70945 | -104.77859 | 30051 ft | 400 kts | 279° |
| 2026-04-23 21:16 | 31.72036 | -104.84345 | 30042 ft | 403 kts | 279° |
| 2026-04-23 21:16 | 31.73116 | -104.90788 | 30049 ft | 401 kts | 279° |
| 2026-04-23 21:17 | 31.74190 | -104.97213 | 30028 ft | 402 kts | 279° |
| 2026-04-23 21:17 | 31.75263 | -105.03652 | 30001 ft | 401 kts | 280° |
| 2026-04-23 21:18 | 31.76337 | -105.10123 | 30010 ft | 402 kts | 279° |
| 2026-04-23 21:18 | 31.77398 | -105.16532 | 30018 ft | 402 kts | 279° |
| 2026-04-23 21:19 | 31.78462 | -105.22981 | 30011 ft | 402 kts | 279° |
| 2026-04-23 21:19 | 31.79525 | -105.29444 | 30017 ft | 401 kts | 279° |
| 2026-04-23 21:20 | 31.80579 | -105.35878 | 30052 ft | 403 kts | 278° |
| 2026-04-23 21:20 | 31.81635 | -105.42344 | 30048 ft | 401 kts | 279° |
| 2026-04-23 21:21 | 31.82681 | -105.48762 | 30072 ft | 401 kts | 279° |
| 2026-04-23 21:21 | 31.83724 | -105.55196 | 30043 ft | 401 kts | 279° |
| 2026-04-23 21:22 | 31.84769 | -105.61657 | 30068 ft | 402 kts | 278° |
| 2026-04-23 21:22 | 31.85802 | -105.68067 | 30088 ft | 399 kts | 278° |
| 2026-04-23 21:23 | 31.86839 | -105.74526 | 30109 ft | 401 kts | 278° |
| 2026-04-23 21:23 | 31.87863 | -105.80916 | 30074 ft | 399 kts | 278° |
| 2026-04-23 21:24 | 31.88890 | -105.87351 | 30071 ft | 400 kts | 278° |
| 2026-04-23 21:24 | 31.89906 | -105.93742 | 30077 ft | 399 kts | 278° |
| 2026-04-23 21:25 | 31.90922 | -106.00153 | 30078 ft | 399 kts | 278° |
| 2026-04-23 21:25 | 31.91934 | -106.06561 | 30049 ft | 399 kts | 278° |
| 2026-04-23 21:26 | 31.92944 | -106.12975 | 29966 ft | 398 kts | 278° |
| 2026-04-23 21:26 | 31.93957 | -106.19433 | 29939 ft | 401 kts | 277° |
| 2026-04-23 21:27 | 31.94964 | -106.25877 | 29932 ft | 398 kts | 277° |
| 2026-04-23 21:27 | 31.95760 | -106.32291 | 29932 ft | 401 kts | 276° |
| 2026-04-23 21:28 | 31.96531 | -106.38786 | 29945 ft | 400 kts | 276° |
| 2026-04-23 21:28 | 31.97294 | -106.45271 | 29948 ft | 399 kts | 276° |
| 2026-04-23 21:29 | 31.98050 | -106.51746 | 29952 ft | 400 kts | 275° |
| 2026-04-23 21:29 | 31.98793 | -106.58215 | 29907 ft | 400 kts | 276° |
| 2026-04-23 21:30 | 31.99547 | -106.64703 | 29870 ft | 400 kts | 276° |
| 2026-04-23 21:30 | 32.00293 | -106.71175 | 29898 ft | 400 kts | 275° |
| 2026-04-23 21:31 | 32.01040 | -106.77692 | 29961 ft | 401 kts | 275° |
| 2026-04-23 21:31 | 32.01780 | -106.84184 | 30040 ft | 399 kts | 276° |
| 2026-04-23 21:32 | 32.02514 | -106.90647 | 30035 ft | 397 kts | 275° |
| 2026-04-23 21:32 | 32.03242 | -106.97101 | 30040 ft | 400 kts | 275° |
| 2026-04-23 21:33 | 32.03974 | -107.03621 | 30029 ft | 399 kts | 276° |
| 2026-04-23 21:33 | 32.04695 | -107.10067 | 30022 ft | 399 kts | 276° |
| 2026-04-23 21:34 | 32.05423 | -107.16606 | 30042 ft | 400 kts | 275° |
| 2026-04-23 21:34 | 32.06138 | -107.23055 | 30078 ft | 399 kts | 276° |
| 2026-04-23 21:35 | 32.06856 | -107.29577 | 30046 ft | 403 kts | 275° |
| 2026-04-23 21:35 | 32.07574 | -107.36113 | 30059 ft | 402 kts | 275° |
| 2026-04-23 21:36 | 32.08638 | -107.45870 | 30059 ft | 400 kts | 275° |
| 2026-04-23 21:37 | 32.09346 | -107.52399 | 30021 ft | 400 kts | 275° |
| 2026-04-23 21:37 | 32.10045 | -107.58881 | 30037 ft | 402 kts | 275° |
| 2026-04-23 21:38 | 32.10753 | -107.65475 | 30023 ft | 402 kts | 274° |
| 2026-04-23 21:38 | 32.11451 | -107.72012 | 30031 ft | 404 kts | 275° |
| 2026-04-23 21:39 | 32.12151 | -107.78603 | 29984 ft | 401 kts | 274° |
| 2026-04-23 21:39 | 32.12840 | -107.85123 | 30034 ft | 405 kts | 275° |
| 2026-04-23 21:40 | 32.13533 | -107.91708 | 30073 ft | 401 kts | 274° |
| 2026-04-23 21:40 | 32.14219 | -107.98264 | 30058 ft | 403 kts | 275° |
| 2026-04-23 21:41 | 32.14900 | -108.04806 | 30086 ft | 403 kts | 274° |
| 2026-04-23 21:41 | 32.15578 | -108.11345 | 30079 ft | 401 kts | 275° |
| 2026-04-23 21:42 | 32.16252 | -108.17889 | 30073 ft | 402 kts | 275° |
| 2026-04-23 21:42 | 32.16921 | -108.24409 | 30093 ft | 401 kts | 274° |
| 2026-04-23 21:43 | 32.17589 | -108.30959 | 30085 ft | 403 kts | 274° |
| 2026-04-23 21:43 | 32.18256 | -108.37536 | 30079 ft | 405 kts | 274° |
| 2026-04-23 21:44 | 32.18922 | -108.44128 | 30074 ft | 402 kts | 274° |
| 2026-04-23 21:44 | 32.19585 | -108.50738 | 30083 ft | 405 kts | 275° |
| 2026-04-23 21:45 | 32.20243 | -108.57315 | 30025 ft | 403 kts | 274° |
| 2026-04-23 21:45 | 32.20896 | -108.63889 | 30068 ft | 403 kts | 274° |
| 2026-04-23 21:46 | 32.21548 | -108.70486 | 30019 ft | 404 kts | 274° |
| 2026-04-23 21:46 | 32.22195 | -108.77068 | 30004 ft | 403 kts | 274° |
| 2026-04-23 21:47 | 32.22837 | -108.83639 | 30019 ft | 405 kts | 274° |
| 2026-04-23 21:47 | 32.23475 | -108.90196 | 30056 ft | 403 kts | 274° |
| 2026-04-23 21:48 | 32.24113 | -108.96796 | 30085 ft | 404 kts | 274° |
| 2026-04-23 21:48 | 32.24745 | -109.03376 | 30082 ft | 403 kts | 274° |
| 2026-04-23 21:49 | 32.25376 | -109.09966 | 30070 ft | 405 kts | 274° |
| 2026-04-23 21:49 | 32.26001 | -109.16537 | 30060 ft | 402 kts | 274° |
| 2026-04-23 21:50 | 32.26622 | -109.23108 | 30044 ft | 405 kts | 274° |
| 2026-04-23 21:50 | 32.27976 | -109.29589 | 30035 ft | 411 kts | 287° |
| 2026-04-23 21:51 | 32.30199 | -109.35831 | 30028 ft | 411 kts | 287° |
| 2026-04-23 21:51 | 32.32417 | -109.42076 | 30064 ft | 413 kts | 288° |
| 2026-04-23 21:52 | 32.34620 | -109.48339 | 30047 ft | 414 kts | 288° |
| 2026-04-23 21:52 | 32.36819 | -109.54626 | 30056 ft | 412 kts | 288° |
| 2026-04-23 21:53 | 32.38987 | -109.60845 | 30055 ft | 411 kts | 287° |
| 2026-04-23 21:53 | 32.41177 | -109.67154 | 30091 ft | 415 kts | 287° |
| 2026-04-23 21:54 | 32.43361 | -109.73449 | 30100 ft | 411 kts | 287° |
| 2026-04-23 21:54 | 32.45537 | -109.79741 | 30107 ft | 414 kts | 287° |
| 2026-04-23 21:55 | 32.47709 | -109.86033 | 30108 ft | 415 kts | 288° |
| 2026-04-23 21:55 | 32.49889 | -109.92357 | 30116 ft | 413 kts | 287° |
| 2026-04-23 21:56 | 32.52062 | -109.98676 | 30092 ft | 414 kts | 287° |
| 2026-04-23 21:56 | 32.54237 | -110.05015 | 30078 ft | 417 kts | 287° |
| 2026-04-23 21:57 | 32.56426 | -110.11402 | 30052 ft | 416 kts | 288° |
| 2026-04-23 21:57 | 32.58593 | -110.17742 | 30045 ft | 416 kts | 287° |
| 2026-04-23 21:58 | 32.60765 | -110.24108 | 30058 ft | 417 kts | 287° |
| 2026-04-23 21:58 | 32.62924 | -110.30445 | 30038 ft | 415 kts | 287° |
| 2026-04-23 21:59 | 32.65075 | -110.36774 | 30042 ft | 419 kts | 287° |
| 2026-04-23 21:59 | 32.67265 | -110.43230 | 30001 ft | 418 kts | 287° |
| 2026-04-23 22:00 | 32.70497 | -110.52783 | 30008 ft | 417 kts | 287° |
| 2026-04-23 22:00 | 32.72658 | -110.59187 | 30022 ft | 418 kts | 288° |
| 2026-04-23 22:01 | 32.74811 | -110.65575 | 30038 ft | 419 kts | 287° |
| 2026-04-23 22:01 | 32.76987 | -110.72049 | 30039 ft | 419 kts | 287° |
| 2026-04-23 22:02 | 32.79143 | -110.78475 | 30019 ft | 420 kts | 287° |
| 2026-04-23 22:02 | 32.81289 | -110.84885 | 30014 ft | 419 kts | 287° |
| 2026-04-23 22:03 | 32.83449 | -110.91350 | 30013 ft | 420 kts | 287° |
| 2026-04-23 22:03 | 32.85583 | -110.97752 | 30010 ft | 422 kts | 287° |
| 2026-04-23 22:04 | 32.87748 | -111.04256 | 30005 ft | 420 kts | 287° |
| 2026-04-23 22:04 | 32.89898 | -111.10727 | 29990 ft | 422 kts | 286° |
| 2026-04-23 22:05 | 32.92061 | -111.17250 | 29994 ft | 421 kts | 287° |
| 2026-04-23 22:05 | 32.94232 | -111.23815 | 29971 ft | 421 kts | 287° |
| 2026-04-23 22:06 | 32.96363 | -111.30272 | 29961 ft | 421 kts | 287° |
| 2026-04-23 22:06 | 32.98504 | -111.36773 | 29944 ft | 422 kts | 287° |
| 2026-04-23 22:07 | 33.00642 | -111.43272 | 29922 ft | 422 kts | 287° |
| 2026-04-23 22:07 | 33.02784 | -111.49804 | 29929 ft | 422 kts | 287° |
| 2026-04-23 22:08 | 33.04924 | -111.56342 | 29930 ft | 423 kts | 287° |
| 2026-04-23 22:08 | 33.07060 | -111.62879 | 29925 ft | 424 kts | 287° |
| 2026-04-23 22:09 | 33.09179 | -111.69376 | 29951 ft | 419 kts | 286° |
| 2026-04-23 22:09 | 33.11306 | -111.75919 | 29942 ft | 427 kts | 286° |
| 2026-04-23 22:10 | 33.13431 | -111.82458 | 29933 ft | 419 kts | 286° |
| 2026-04-23 22:10 | 33.15553 | -111.89012 | 29923 ft | 423 kts | 286° |
| 2026-04-23 22:11 | 33.17670 | -111.95561 | 29934 ft | 424 kts | 287° |
| 2026-04-23 22:11 | 33.19788 | -112.02123 | 29932 ft | 421 kts | 287° |
| 2026-04-23 22:12 | 33.21881 | -112.08625 | 29932 ft | 423 kts | 287° |
| 2026-04-23 22:12 | 33.23994 | -112.15199 | 29900 ft | 419 kts | 286° |
| 2026-04-23 22:13 | 33.26095 | -112.21757 | 29943 ft | 424 kts | 286° |
| 2026-04-23 22:13 | 33.28180 | -112.28266 | 29896 ft | 414 kts | 286° |
| 2026-04-23 22:14 | 33.30265 | -112.34805 | 29926 ft | 422 kts | 286° |
| 2026-04-23 22:14 | 33.32338 | -112.41310 | 29905 ft | 420 kts | 287° |
| 2026-04-23 22:15 | 33.34414 | -112.47840 | 29898 ft | 419 kts | 287° |
| 2026-04-23 22:15 | 33.36490 | -112.54388 | 29940 ft | 422 kts | 286° |
| 2026-04-23 22:16 | 33.38557 | -112.60916 | 29913 ft | 418 kts | 287° |
| 2026-04-23 22:16 | 33.40634 | -112.67491 | 29933 ft | 419 kts | 286° |
| 2026-04-23 22:17 | 33.42679 | -112.73976 | 29931 ft | 419 kts | 286° |
| 2026-04-23 22:17 | 33.44741 | -112.80536 | 29952 ft | 419 kts | 286° |
| 2026-04-23 22:18 | 33.46903 | -112.86951 | 29911 ft | 419 kts | 288° |
| 2026-04-23 22:18 | 33.49249 | -112.93423 | 29894 ft | 421 kts | 289° |
| 2026-04-23 22:19 | 33.51567 | -112.99860 | 29901 ft | 421 kts | 289° |
| 2026-04-23 22:19 | 33.53856 | -113.06248 | 29894 ft | 419 kts | 289° |
| 2026-04-23 22:20 | 33.56157 | -113.12698 | 29904 ft | 420 kts | 288° |
| 2026-04-23 22:20 | 33.58444 | -113.19121 | 29917 ft | 414 kts | 289° |
| 2026-04-23 22:21 | 33.60712 | -113.25514 | 29913 ft | 421 kts | 288° |
| 2026-04-23 22:21 | 33.63000 | -113.31969 | 29923 ft | 420 kts | 288° |
| 2026-04-23 22:22 | 33.65295 | -113.38460 | 29932 ft | 418 kts | 289° |
| 2026-04-23 22:22 | 33.67574 | -113.44920 | 29931 ft | 421 kts | 289° |
| 2026-04-23 22:23 | 33.69845 | -113.51369 | 29938 ft | 421 kts | 289° |
| 2026-04-23 22:23 | 33.72118 | -113.57835 | 29931 ft | 420 kts | 289° |
| 2026-04-23 22:24 | 33.74395 | -113.64326 | 29922 ft | 418 kts | 289° |
| 2026-04-23 22:24 | 33.76664 | -113.70811 | 29934 ft | 418 kts | 288° |
| 2026-04-23 22:25 | 33.78916 | -113.77260 | 29929 ft | 419 kts | 289° |
| 2026-04-23 22:25 | 33.81136 | -113.83676 | 29926 ft | 417 kts | 288° |
| 2026-04-23 22:26 | 33.83350 | -113.90198 | 29927 ft | 420 kts | 288° |
| 2026-04-23 22:26 | 33.85547 | -113.96674 | 29923 ft | 417 kts | 288° |
| 2026-04-23 22:27 | 33.87742 | -114.03159 | 29920 ft | 419 kts | 289° |
| 2026-04-23 22:27 | 33.89949 | -114.09707 | 29906 ft | 420 kts | 287° |
| 2026-04-23 22:28 | 33.91385 | -114.16446 | 29906 ft | 417 kts | 279° |
| 2026-04-23 22:28 | 33.92540 | -114.23240 | 29895 ft | 416 kts | 279° |
| 2026-04-23 22:29 | 33.93695 | -114.30065 | 29888 ft | 415 kts | 279° |
| 2026-04-23 22:29 | 33.94849 | -114.36907 | 29891 ft | 424 kts | 279° |
| 2026-04-23 22:30 | 33.95441 | -114.40427 | 29888 ft | 437 kts | 279° |
| 2026-04-23 22:30 | 33.96049 | -114.44046 | 29888 ft | 440 kts | 279° |
| 2026-04-23 22:30 | 33.97254 | -114.51228 | 29886 ft | 438 kts | 279° |
| 2026-04-23 22:31 | 33.98455 | -114.58417 | 29884 ft | 438 kts | 280° |
| 2026-04-23 22:31 | 33.99654 | -114.65621 | 29889 ft | 438 kts | 279° |
| 2026-04-23 22:32 | 34.00861 | -114.72897 | 29907 ft | 438 kts | 279° |
| 2026-04-23 22:32 | 34.02049 | -114.80095 | 29919 ft | 438 kts | 279° |
| 2026-04-23 22:33 | 34.03229 | -114.87265 | 29926 ft | 438 kts | 279° |
| 2026-04-23 22:33 | 34.04418 | -114.94523 | 29929 ft | 438 kts | 279° |
| 2026-04-23 22:34 | 34.05597 | -115.01740 | 29932 ft | 439 kts | 279° |
| 2026-04-23 22:34 | 34.06772 | -115.08952 | 29932 ft | 439 kts | 279° |
| 2026-04-23 22:35 | 34.07951 | -115.16205 | 29930 ft | 440 kts | 279° |
| 2026-04-23 22:35 | 34.09119 | -115.23425 | 29925 ft | 440 kts | 279° |
| 2026-04-23 22:36 | 34.10291 | -115.30690 | 29931 ft | 441 kts | 279° |
| 2026-04-23 22:36 | 34.11459 | -115.37966 | 29947 ft | 441 kts | 279° |
| 2026-04-23 22:37 | 34.12620 | -115.45220 | 29938 ft | 440 kts | 279° |
| 2026-04-23 22:37 | 34.13779 | -115.52496 | 29962 ft | 441 kts | 279° |
| 2026-04-23 22:38 | 34.14931 | -115.59757 | 29966 ft | 440 kts | 279° |
| 2026-04-23 22:38 | 34.15971 | -115.67094 | 29990 ft | 440 kts | 274° |
| 2026-04-23 22:39 | 34.15839 | -115.74491 | 30009 ft | 441 kts | 264° |
| 2026-04-23 22:39 | 34.15138 | -115.81853 | 30006 ft | 439 kts | 263° |
| 2026-04-23 22:40 | 34.14432 | -115.89158 | 30024 ft | 434 kts | 263° |
| 2026-04-23 22:40 | 34.13752 | -115.96129 | 30005 ft | 400 kts | 263° |
| 2026-04-23 22:41 | 34.13435 | -115.99371 | 30009 ft | 394 kts | 263° |
| 2026-04-23 22:41 | 34.13104 | -116.02759 | 30019 ft | 408 kts | 264° |
| 2026-04-23 22:41 | 34.12767 | -116.06207 | 30016 ft | 419 kts | 263° |
| 2026-04-23 22:41 | 34.12422 | -116.09725 | 29854 ft | 423 kts | 264° |
| 2026-04-23 22:42 | 34.12075 | -116.13246 | 29469 ft | 421 kts | 263° |
| 2026-04-23 22:42 | 34.11732 | -116.16719 | 29084 ft | 416 kts | 264° |
| 2026-04-23 22:42 | 34.11390 | -116.20168 | 28635 ft | 412 kts | 263° |
| 2026-04-23 22:42 | 34.11052 | -116.23573 | 28145 ft | 409 kts | 264° |
| 2026-04-23 22:43 | 34.10714 | -116.26959 | 27674 ft | 405 kts | 264° |
| 2026-04-23 22:43 | 34.10379 | -116.30309 | 27233 ft | 403 kts | 264° |
| 2026-04-23 22:43 | 34.10027 | -116.33665 | 26749 ft | 402 kts | 263° |
| 2026-04-23 22:43 | 34.09669 | -116.37006 | 26272 ft | 400 kts | 264° |
| 2026-04-23 22:44 | 34.09311 | -116.40346 | 25783 ft | 397 kts | 264° |
| 2026-04-23 22:44 | 34.08958 | -116.43622 | 25320 ft | 394 kts | 264° |
| 2026-04-23 22:44 | 34.08606 | -116.46894 | 24832 ft | 393 kts | 264° |
| 2026-04-23 22:44 | 34.08254 | -116.50163 | 24357 ft | 391 kts | 264° |
| 2026-04-23 22:45 | 34.07904 | -116.53395 | 24026 ft | 383 kts | 264° |
| 2026-04-23 22:45 | 34.07566 | -116.56517 | 24008 ft | 366 kts | 264° |
| 2026-04-23 22:45 | 34.07243 | -116.59491 | 24010 ft | 357 kts | 264° |
| 2026-04-23 22:45 | 34.06956 | -116.62520 | 23574 ft | 366 kts | 265° |
| 2026-04-23 22:46 | 34.06684 | -116.65540 | 22874 ft | 368 kts | 265° |
| 2026-04-23 22:46 | 34.06403 | -116.68611 | 22247 ft | 366 kts | 265° |
| 2026-04-23 22:46 | 34.06124 | -116.71639 | 21834 ft | 355 kts | 265° |
| 2026-04-23 22:46 | 34.05855 | -116.74544 | 21485 ft | 346 kts | 265° |
| 2026-04-23 22:47 | 34.05584 | -116.77463 | 20994 ft | 348 kts | 265° |
| 2026-04-23 22:47 | 34.05316 | -116.80323 | 20464 ft | 347 kts | 265° |
| 2026-04-23 22:47 | 34.05044 | -116.83224 | 19956 ft | 345 kts | 264° |
| 2026-04-23 22:47 | 34.04776 | -116.86073 | 19440 ft | 343 kts | 264° |
| 2026-04-23 22:48 | 34.04505 | -116.88937 | 19017 ft | 340 kts | 265° |
| 2026-04-23 22:48 | 34.04175 | -116.91743 | 18549 ft | 337 kts | 262° |
| 2026-04-23 22:48 | 34.03804 | -116.94484 | 18183 ft | 332 kts | 262° |
| 2026-04-23 22:48 | 34.03435 | -116.97236 | 17799 ft | 327 kts | 262° |
| 2026-04-23 22:49 | 34.03081 | -116.99918 | 17427 ft | 325 kts | 263° |
| 2026-04-23 22:49 | 34.02732 | -117.02593 | 17071 ft | 326 kts | 263° |
| 2026-04-23 22:49 | 34.02394 | -117.05301 | 16727 ft | 323 kts | 263° |
| 2026-04-23 22:49 | 34.02082 | -117.07987 | 16465 ft | 320 kts | 263° |
| 2026-04-23 22:50 | 34.01771 | -117.10651 | 16208 ft | 322 kts | 263° |
| 2026-04-23 22:50 | 34.01458 | -117.13300 | 15939 ft | 321 kts | 263° |
| 2026-04-23 22:50 | 34.01140 | -117.15979 | 15670 ft | 320 kts | 264° |
| 2026-04-23 22:50 | 34.00823 | -117.18643 | 15399 ft | 320 kts | 264° |
| 2026-04-23 22:51 | 34.00503 | -117.21327 | 15124 ft | 320 kts | 263° |
| 2026-04-23 22:51 | 34.00187 | -117.23968 | 14849 ft | 319 kts | 263° |
| 2026-04-23 22:51 | 33.99869 | -117.26627 | 14520 ft | 320 kts | 263° |
| 2026-04-23 22:51 | 33.99553 | -117.29256 | 14168 ft | 318 kts | 263° |
| 2026-04-23 22:52 | 33.99240 | -117.31866 | 13835 ft | 315 kts | 264° |
| 2026-04-23 22:52 | 33.98931 | -117.34504 | 13547 ft | 314 kts | 264° |
| 2026-04-23 22:52 | 33.98625 | -117.37122 | 13263 ft | 315 kts | 264° |
| 2026-04-23 22:52 | 33.98318 | -117.39730 | 12974 ft | 313 kts | 264° |
| 2026-04-23 22:53 | 33.98016 | -117.42293 | 12695 ft | 307 kts | 264° |
| 2026-04-23 22:53 | 33.97720 | -117.44794 | 12415 ft | 301 kts | 264° |
| 2026-04-23 22:53 | 33.97427 | -117.47310 | 12138 ft | 301 kts | 265° |
| 2026-04-23 22:53 | 33.97417 | -117.49956 | 11978 ft | 323 kts | 277° |
| 2026-04-23 22:54 | 33.97886 | -117.52557 | 11750 ft | 314 kts | 288° |
| 2026-04-23 22:54 | 33.98582 | -117.55016 | 11512 ft | 307 kts | 288° |
| 2026-04-23 22:54 | 33.99227 | -117.57420 | 11272 ft | 300 kts | 287° |
| 2026-04-23 22:54 | 33.99820 | -117.59804 | 11022 ft | 294 kts | 286° |
| 2026-04-23 22:55 | 34.00377 | -117.62127 | 10782 ft | 288 kts | 286° |
| 2026-04-23 22:55 | 34.00919 | -117.64418 | 10539 ft | 282 kts | 286° |
| 2026-04-23 22:55 | 34.01451 | -117.66676 | 10311 ft | 276 kts | 285° |
| 2026-04-23 22:55 | 34.01962 | -117.68893 | 10078 ft | 270 kts | 282° |
| 2026-04-23 22:56 | 34.02048 | -117.71137 | 9836 ft | 267 kts | 268° |
| 2026-04-23 22:56 | 34.01864 | -117.73380 | 9529 ft | 268 kts | 263° |
| 2026-04-23 22:56 | 34.01621 | -117.75584 | 9244 ft | 267 kts | 263° |
| 2026-04-23 22:56 | 34.01381 | -117.77801 | 8979 ft | 267 kts | 264° |
| 2026-04-23 22:57 | 34.01146 | -117.80018 | 8712 ft | 267 kts | 264° |
| 2026-04-23 22:57 | 34.00911 | -117.82263 | 8429 ft | 267 kts | 264° |
| 2026-04-23 22:57 | 34.00682 | -117.84461 | 8150 ft | 267 kts | 264° |
| 2026-04-23 22:57 | 34.00454 | -117.86692 | 7868 ft | 267 kts | 264° |
| 2026-04-23 22:58 | 34.00226 | -117.88939 | 7582 ft | 268 kts | 264° |
| 2026-04-23 22:58 | 34.00003 | -117.91148 | 7297 ft | 268 kts | 264° |
| 2026-04-23 22:58 | 33.99778 | -117.93397 | 6998 ft | 267 kts | 264° |
| 2026-04-23 22:58 | 33.99559 | -117.95605 | 6707 ft | 267 kts | 265° |
| 2026-04-23 22:59 | 33.99340 | -117.97835 | 6412 ft | 269 kts | 264° |
| 2026-04-23 22:59 | 33.99116 | -118.00096 | 6113 ft | 269 kts | 264° |
| 2026-04-23 22:59 | 33.98896 | -118.02325 | 5808 ft | 268 kts | 264° |
| 2026-04-23 22:59 | 33.98680 | -118.04550 | 5500 ft | 267 kts | 265° |
| 2026-04-23 23:00 | 33.98466 | -118.06765 | 5195 ft | 267 kts | 265° |
| 2026-04-23 23:00 | 33.98255 | -118.08968 | 4888 ft | 266 kts | 265° |
| 2026-04-23 23:00 | 33.98042 | -118.11204 | 4575 ft | 266 kts | 265° |
| 2026-04-23 23:00 | 33.97831 | -118.13415 | 4263 ft | 265 kts | 265° |
| 2026-04-23 23:01 | 33.97623 | -118.15604 | 3903 ft | 257 kts | 264° |
| 2026-04-23 23:01 | 33.97433 | -118.17701 | 3600 ft | 247 kts | 265° |
| 2026-04-23 23:01 | 33.97258 | -118.19691 | 3313 ft | 237 kts | 264° |
| 2026-04-23 23:01 | 33.97082 | -118.21633 | 3039 ft | 219 kts | 264° |
| 2026-04-23 23:02 | 33.96924 | -118.23347 | 2792 ft | 199 kts | 264° |
| 2026-04-23 23:02 | 33.96771 | -118.24935 | 2557 ft | 183 kts | 264° |
| 2026-04-23 23:02 | 33.96626 | -118.26380 | 2371 ft | 166 kts | 263° |
| 2026-04-23 23:02 | 33.96490 | -118.27731 | 2164 ft | 159 kts | 263° |
| 2026-04-23 23:03 | 33.96353 | -118.29062 | 1957 ft | 156 kts | 263° |
| 2026-04-23 23:03 | 33.96221 | -118.30352 | 1750 ft | 156 kts | 263° |
| 2026-04-23 23:03 | 33.96088 | -118.31667 | 1570 ft | 155 kts | 263° |
| 2026-04-23 23:03 | 33.95970 | -118.32944 | 1359 ft | 155 kts | 263° |
| 2026-04-23 23:04 | 33.95835 | -118.34236 | 1108 ft | 153 kts | 261° |
| 2026-04-23 23:04 | 33.95680 | -118.35510 | 843 ft | 152 kts | 262° |
| 2026-04-23 23:04 | 33.95551 | -118.36771 | 643 ft | 149 kts | 263° |
| 2026-04-23 23:04 | 33.95437 | -118.37997 | 446 ft | 146 kts | 262° |
| 2026-04-23 23:05 | 33.95312 | -118.39206 | 276 ft | 142 kts | 262° |
| 2026-04-23 23:05 | 33.95191 | -118.40388 | 130 ft | 136 kts | 262° |
| 2026-04-23 23:05 | 33.95089 | -118.41372 | 135 ft | 100 kts | 263° |
| 2026-04-23 23:05 | 33.95028 | -118.41962 | 133 ft | 52 kts | 260° |
| 2026-04-23 23:06 | 33.94936 | -118.42203 | 131 ft | 16 kts | 230° |
| 2026-04-23 23:06 | 33.94904 | -118.42245 | 131 ft | 0 kts | 224° |
| 2026-04-23 23:06 | 33.94896 | -118.42253 | 130 ft | 5 kts | 224° |
| 2026-04-23 23:07 | 33.94829 | -118.42286 | 128 ft | 15 kts | 181° |
| 2026-04-23 23:07 | 33.94709 | -118.42269 | 128 ft | 17 kts | 173° |
| 2026-04-23 23:07 | 33.94619 | -118.42239 | 127 ft | 10 kts | 130° |
| 2026-04-23 23:07 | 33.94610 | -118.42152 | 128 ft | 11 kts | 85° |
| 2026-04-23 23:08 | 33.94619 | -118.42050 | 129 ft | 12 kts | 84° |
| 2026-04-23 23:08 | 33.94630 | -118.41920 | 130 ft | 21 kts | 85° |
| 2026-04-23 23:08 | 33.94646 | -118.41741 | 131 ft | 20 kts | 82° |
| 2026-04-23 23:08 | 33.94665 | -118.41576 | 131 ft | 18 kts | 83° |
| 2026-04-23 23:09 | 33.94677 | -118.41434 | 131 ft | 10 kts | 91° |
| 2026-04-23 23:09 | 33.94633 | -118.41378 | 131 ft | 9 kts | 172° |
| 2026-04-23 23:09 | 33.94569 | -118.41367 | 131 ft | 8 kts | 174° |
| 2026-04-23 23:09 | 33.94508 | -118.41360 | 131 ft | 8 kts | 174° |
| 2026-04-23 23:10 | 33.94454 | -118.41351 | 131 ft | 7 kts | 173° |
| 2026-04-23 23:10 | 33.94402 | -118.41344 | 131 ft | 7 kts | 174° |
| 2026-04-23 23:10 | 33.94349 | -118.41338 | 131 ft | 7 kts | 175° |
| 2026-04-23 23:10 | 33.94300 | -118.41330 | 132 ft | 6 kts | 171° |
| 2026-04-23 23:11 | 33.94258 | -118.41322 | 132 ft | 5 kts | 172° |
| 2026-04-23 23:11 | 33.94207 | -118.41314 | 132 ft | 10 kts | 174° |
| 2026-04-23 23:11 | 33.94129 | -118.41304 | 133 ft | 10 kts | 173° |
| 2026-04-23 23:11 | 33.94066 | -118.41287 | 134 ft | 8 kts | 155° |
| 2026-04-23 23:12 | 33.94041 | -118.41248 | 134 ft | 5 kts | 96° |
| 2026-04-23 23:12 | 33.94047 | -118.41214 | 134 ft | 3 kts | 38° |
| 2026-04-23 23:12 | 33.94070 | -118.41202 | 135 ft | 3 kts | 21° |
| 2026-04-23 23:12 | 33.94087 | -118.41188 | 135 ft | 3 kts | 64° |
| 2026-04-23 23:13 | 33.94091 | -118.41161 | 135 ft | 2 kts | 81° |
| 2026-04-23 23:13 | 33.94095 | -118.41129 | 136 ft | 3 kts | 82° |
| 2026-04-23 23:13 | 33.94098 | -118.41104 | 137 ft | 2 kts | 83° |
| 2026-04-23 23:13 | 33.94099 | -118.41093 | 137 ft | 0 kts | 83° |
| 2026-04-23 23:14 | 33.94099 | -118.41090 | 137 ft | 1 kts | 83° |